TimeSAST,TemperatureF,Dew PointF,Humidity,Sea Level PressureIn,VisibilityMPH,Wind Direction,Wind SpeedMPH,Gust SpeedMPH,PrecipitationIn,Events,Conditions,WindDirDegrees,DateUTC
12:00 AM,66.2,53.6,64,30.01,-9999.0,NNW,4.6,-,N/A,,Unknown,340,2012-12-06 22:00:00
1:00 AM,64.4,55.4,73,30.01,-9999.0,ENE,3.5,-,N/A,,Clear,60,2012-12-06 23:00:00
2:00 AM,64,57,71,,25,North,3.5,,,,,350,2012-12-07 00:00:00
2:00 AM,62.6,55.4,77,30.01,-9999.0,North,3.5,-,N/A,,Clear,350,2012-12-07 00:00:00
3:00 AM,64.4,57.2,77,30.01,-9999.0,North,5.8,-,N/A,,Clear,360,2012-12-07 01:00:00
4:00 AM,64.4,55.4,73,30.01,-9999.0,North,5.8,-,N/A,,Clear,350,2012-12-07 02:00:00
5:00 AM,64,58,74,,25,North,6.9,,,,,350,2012-12-07 03:00:00
5:00 AM,62.6,57.2,82,30.01,-9999.0,North,5.8,-,N/A,,Clear,350,2012-12-07 03:00:00
6:00 AM,64.4,57.2,77,30.01,-9999.0,North,6.9,-,N/A,,Clear,350,2012-12-07 04:00:00
6:45 AM,69.8,59.0,68,30.04,-9999.0,NNW,9.2,-,N/A,,Clear,340,2012-12-07 04:45:00
7:00 AM,69.8,59.0,68,30.04,-9999.0,NNW,11.5,-,N/A,,Clear,340,2012-12-07 05:00:00
7:28 AM,73.4,59.0,61,30.04,-9999.0,NNW,15.0,-,N/A,,Clear,340,2012-12-07 05:28:00
8:00 AM,76,57,41,,25,NNW,17.3,,,,,340,2012-12-07 06:00:00
8:00 AM,75.2,55.4,50,30.04,-9999.0,NNW,16.1,-,N/A,,Clear,340,2012-12-07 06:00:00
8:38 AM,78.8,55.4,44,30.04,-9999.0,NW,13.8,-,N/A,,Clear,320,2012-12-07 06:38:00
9:00 AM,80.6,53.6,39,30.04,-9999.0,NW,11.5,-,N/A,,Clear,320,2012-12-07 07:00:00
10:00 AM,82.4,53.6,37,30.04,-9999.0,NW,18.4,-,N/A,,Clear,320,2012-12-07 08:00:00
10:48 AM,86.0,51.8,31,30.01,6.2,NNW,13.8,-,N/A,,Partly Cloudy,340,2012-12-07 08:48:00
11:00 AM,85,53,23,,25,NW,15.0,,,,Scattered Clouds,320,2012-12-07 09:00:00
11:00 AM,84.2,51.8,33,30.01,6.2,NW,15.0,28.8,N/A,,Partly Cloudy,320,2012-12-07 09:00:00
11:17 AM,87.8,53.6,31,30.01,6.2,NNW,13.8,-,N/A,,Partly Cloudy,330,2012-12-07 09:17:00
12:00 PM,87.8,51.8,29,29.98,6.2,NW,13.8,-,N/A,,Partly Cloudy,320,2012-12-07 10:00:00
12:22 PM,93.2,51.8,24,29.98,6.2,NW,12.7,-,N/A,,Partly Cloudy,310,2012-12-07 10:22:00
1:00 PM,93.2,51.8,24,29.98,6.2,NW,12.7,25.3,N/A,,Partly Cloudy,310,2012-12-07 11:00:00
2:00 PM,95,41,8,,25,WNW,15.0,,,,Scattered Clouds,300,2012-12-07 12:00:00
2:00 PM,95.0,41.0,15,29.95,6.2,WNW,13.8,27.6,N/A,,Scattered Clouds,300,2012-12-07 12:00:00
3:00 PM,96.8,41.0,15,29.92,6.2,WNW,13.8,-,N/A,,Scattered Clouds,290,2012-12-07 13:00:00
4:00 PM,95.0,35.6,12,29.92,6.2,West,12.7,-,N/A,,Partly Cloudy,280,2012-12-07 14:00:00
5:00 PM,97,35,5,,25,West,12.7,,,,Scattered Clouds,260,2012-12-07 15:00:00
5:00 PM,96.8,33.8,11,29.92,6.2,West,12.7,-,N/A,,Partly Cloudy,260,2012-12-07 15:00:00
6:00 PM,93.2,32.0,11,29.92,6.2,SSW,12.7,-,N/A,,Partly Cloudy,200,2012-12-07 16:00:00
7:00 PM,87.8,24.8,10,29.92,6.2,SSW,12.7,-,N/A,,Partly Cloudy,200,2012-12-07 17:00:00
8:00 PM,85,27,6,,25,SSW,10.4,,,,Scattered Clouds,210,2012-12-07 18:00:00
8:00 PM,84.2,28.4,13,29.95,6.2,SSW,9.2,-,N/A,,Partly Cloudy,210,2012-12-07 18:00:00
9:00 PM,78.8,26.6,15,29.95,-9999.0,SSW,9.2,-,N/A,,Unknown,210,2012-12-07 19:00:00
10:00 PM,73.4,26.6,18,29.98,-9999.0,SW,6.9,-,N/A,,Unknown,220,2012-12-07 20:00:00
11:00 PM,75,25,8,,,Calm,Calm,,,,,,2012-12-07 21:00:00
11:00 PM,73.4,24.8,16,29.98,-9999.0,SSW,1.2,-,N/A,,Unknown,200,2012-12-07 21:00:00